Time;durP1;ratioP1;P1;durP2;ratioP2;P2;SDS_P1;SDS_P2;PMS_P1;PMS_P2;Temp;Humidity;BMP_temperature;BMP_pressure;BME280_temperature;BME280_humidity;BME280_pressure;Samples;Min_cycle;Max_cycle;Signal;HPM_P1;HPM_P2
2022/06/04 00:00:14;;;;;;;23.30;21.50;;;;;;;;;;5069379;28;20458;-81
2022/06/04 00:02:42;;;;;;;21.70;19.90;;;;;;;;;;5067243;28;20795;-81
2022/06/04 00:05:10;;;;;;;20.17;18.57;;;;;;;;;;5068474;28;20848;-80
2022/06/04 00:07:38;;;;;;;20.77;19.17;;;;;;;;;;5068403;28;20441;-81
2022/06/04 00:15:39;;;;;;;19.40;18.00;;;;;;;;;;5067657;28;20440;-80
2022/06/04 00:18:06;;;;;;;20.30;18.43;;;;;;;;;;5065134;28;20426;-80
2022/06/04 00:20:33;;;;;;;20.03;18.47;;;;;;;;;;5062992;28;20461;-81
2022/06/04 00:23:03;;;;;;;18.93;17.43;;;;;;;;;;5071174;28;20418;-80
2022/06/04 00:25:30;;;;;;;18.47;17.10;;;;;;;;;;5079295;28;20430;-80
2022/06/04 00:27:58;;;;;;;20.00;18.33;;;;;;;;;;5079229;28;20441;-82
2022/06/04 00:30:25;;;;;;;20.33;18.60;;;;;;;;;;5079139;28;20477;-80
2022/06/04 00:32:52;;;;;;;20.20;18.60;;;;;;;;;;5078832;28;20440;-80
2022/06/04 00:35:20;;;;;;;19.07;17.60;;;;;;;;;;5078917;28;20460;-82
2022/06/04 00:37:47;;;;;;;19.90;18.40;;;;;;;;;;5078093;28;20438;-82
2022/06/04 00:40:25;;;;;;;20.30;18.83;;;;;;;;;;5064302;28;20820;-81
2022/06/04 00:42:52;;;;;;;20.33;18.67;;;;;;;;;;5063951;28;20429;-80
2022/06/04 00:45:38;;;;;;;20.70;19.00;;;;;;;;;;5066325;28;20830;-81
2022/06/04 00:48:07;;;;;;;20.73;19.07;;;;;;;;;;5065377;28;20922;-82
2022/06/04 00:50:35;;;;;;;19.23;17.60;;;;;;;;;;5062735;28;20481;-82
2022/06/04 00:53:03;;;;;;;20.63;19.20;;;;;;;;;;5059570;28;20446;-82
2022/06/04 00:55:34;;;;;;;19.40;17.73;;;;;;;;;;5060731;28;20441;-81
2022/06/04 00:58:09;;;;;;;20.23;18.57;;;;;;;;;;5062212;28;20441;-81
2022/06/04 01:00:39;;;;;;;19.80;18.30;;;;;;;;;;5063817;28;20511;-81
2022/06/04 01:03:13;;;;;;;21.43;19.43;;;;;;;;;;5062578;28;20453;-82
2022/06/04 01:05:49;;;;;;;21.27;19.77;;;;;;;;;;5058607;28;20441;-82
2022/06/04 01:08:33;;;;;;;22.80;21.00;;;;;;;;;;5062274;28;20469;-81
2022/06/04 01:11:07;;;;;;;22.60;20.80;;;;;;;;;;5051328;28;20481;-83
2022/06/04 01:13:40;;;;;;;23.50;21.50;;;;;;;;;;5058226;28;20511;-78
2022/06/04 01:16:12;;;;;;;22.60;20.93;;;;;;;;;;5058808;28;20410;-81
2022/06/04 01:18:42;;;;;;;23.20;21.40;;;;;;;;;;5061378;28;20485;-83
2022/06/04 01:21:15;;;;;;;23.97;22.27;;;;;;;;;;5065558;28;20503;-81
2022/06/04 01:23:54;;;;;;;25.83;23.83;;;;;;;;;;5069136;28;20440;-82
2022/06/04 01:26:42;;;;;;;25.70;23.70;;;;;;;;;;5069035;28;20441;-81
2022/06/04 01:29:13;;;;;;;27.50;25.30;;;;;;;;;;5034611;28;20466;-83
2022/06/04 01:31:43;;;;;;;25.90;23.57;;;;;;;;;;5062829;28;20485;-79
2022/06/04 01:34:12;;;;;;;25.97;23.87;;;;;;;;;;5057909;28;20453;-81
2022/06/04 01:36:43;;;;;;;26.07;23.97;;;;;;;;;;5057432;28;20457;-81
2022/06/04 01:39:13;;;;;;;27.77;25.67;;;;;;;;;;5058114;28;20557;-81
2022/06/04 01:41:40;;;;;;;27.67;25.30;;;;;;;;;;5058079;28;20441;-79
2022/06/04 01:44:09;;;;;;;28.20;26.10;;;;;;;;;;5057741;28;20935;-80
2022/06/04 01:46:40;;;;;;;28.33;25.80;;;;;;;;;;5058526;28;20467;-79
2022/06/04 01:49:10;;;;;;;26.27;24.17;;;;;;;;;;5057702;28;20472;-80
2022/06/04 01:51:37;;;;;;;27.40;25.23;;;;;;;;;;5058292;28;20584;-79
2022/06/04 01:54:06;;;;;;;23.93;22.13;;;;;;;;;;5058691;28;20445;-80
2022/06/04 01:56:37;;;;;;;23.53;21.83;;;;;;;;;;5058673;28;20779;-81
2022/06/04 01:59:06;;;;;;;22.17;20.50;;;;;;;;;;5059081;28;20504;-80
2022/06/04 02:01:34;;;;;;;23.03;21.13;;;;;;;;;;5059307;28;20438;-83
2022/06/04 02:04:06;;;;;;;23.43;21.37;;;;;;;;;;5060804;28;20433;-82
2022/06/04 02:06:35;;;;;;;22.77;21.07;;;;;;;;;;5066674;28;20426;-79
2022/06/04 02:09:05;;;;;;;24.00;21.90;;;;;;;;;;5075863;28;20457;-82
2022/06/04 02:11:33;;;;;;;25.33;23.17;;;;;;;;;;5075960;28;20461;-84
2022/06/04 02:14:03;;;;;;;23.13;21.33;;;;;;;;;;5077029;28;20456;-80
2022/06/04 02:16:32;;;;;;;23.63;21.40;;;;;;;;;;5076458;28;20444;-80
2022/06/04 02:19:00;;;;;;;24.40;22.20;;;;;;;;;;5074133;28;20477;-81
2022/06/04 02:21:29;;;;;;;23.43;21.53;;;;;;;;;;5074255;28;20441;-79
2022/06/04 02:23:56;;;;;;;22.60;20.80;;;;;;;;;;5069410;28;20430;-80
2022/06/04 02:26:25;;;;;;;23.33;21.40;;;;;;;;;;5068710;28;20446;-83
2022/06/04 02:28:52;;;;;;;23.00;21.30;;;;;;;;;;5070737;28;20450;-82
2022/06/04 02:31:23;;;;;;;23.77;21.87;;;;;;;;;;5072102;28;20508;-81
2022/06/04 02:33:53;;;;;;;25.00;23.00;;;;;;;;;;5064336;28;20426;-82
2022/06/04 02:36:25;;;;;;;24.27;22.30;;;;;;;;;;5058408;28;20793;-82
2022/06/04 02:38:57;;;;;;;22.77;20.97;;;;;;;;;;5058693;28;20456;-81
2022/06/04 02:41:25;;;;;;;23.53;21.60;;;;;;;;;;5058350;28;20430;-82
2022/06/04 02:43:57;;;;;;;22.10;20.27;;;;;;;;;;5056880;28;20952;-82
2022/06/04 02:46:28;;;;;;;23.30;21.20;;;;;;;;;;5056891;28;20414;-81
2022/06/04 02:48:59;;;;;;;23.03;20.93;;;;;;;;;;5057485;28;20469;-82
2022/06/04 02:51:27;;;;;;;22.07;20.07;;;;;;;;;;5057094;28;20474;-82
2022/06/04 02:53:56;;;;;;;22.83;21.03;;;;;;;;;;5055941;28;20434;-82
2022/06/04 02:56:25;;;;;;;22.10;20.33;;;;;;;;;;5056659;28;20438;-82
2022/06/04 02:58:55;;;;;;;21.97;20.23;;;;;;;;;;5055833;28;21011;-81
2022/06/04 03:01:23;;;;;;;22.00;20.20;;;;;;;;;;5055406;28;20438;-82
2022/06/04 03:03:50;;;;;;;21.87;20.10;;;;;;;;;;5056288;28;20445;-82
2022/06/04 03:06:25;;;;;;;21.83;19.90;;;;;;;;;;5056986;28;20471;-81
2022/06/04 03:08:53;;;;;;;22.37;20.53;;;;;;;;;;5056564;28;20465;-82
2022/06/04 03:11:21;;;;;;;21.83;20.00;;;;;;;;;;5056446;28;20472;-81
2022/06/04 03:13:49;;;;;;;21.03;19.17;;;;;;;;;;5057231;28;20445;-82
2022/06/04 03:16:16;;;;;;;22.07;20.37;;;;;;;;;;5056095;28;20924;-81
2022/06/04 03:18:44;;;;;;;22.90;21.10;;;;;;;;;;5056169;28;20453;-82
2022/06/04 03:21:11;;;;;;;22.50;20.80;;;;;;;;;;5058720;28;20437;-83
2022/06/04 03:23:38;;;;;;;22.07;20.17;;;;;;;;;;5060250;28;20968;-83
2022/06/04 03:26:06;;;;;;;21.43;19.80;;;;;;;;;;5060639;28;20511;-83
2022/06/04 03:28:34;;;;;;;20.93;19.23;;;;;;;;;;5060705;28;20445;-82
2022/06/04 03:31:01;;;;;;;21.33;19.57;;;;;;;;;;5061386;28;20480;-82
2022/06/04 03:33:29;;;;;;;22.47;20.73;;;;;;;;;;5061395;28;20464;-82
2022/06/04 03:35:56;;;;;;;20.03;18.43;;;;;;;;;;5061457;28;20925;-82
2022/06/04 03:38:23;;;;;;;22.00;20.30;;;;;;;;;;5061604;28;20931;-81
2022/06/04 03:40:50;;;;;;;19.67;18.07;;;;;;;;;;5062165;28;20487;-82
2022/06/04 03:43:17;;;;;;;20.40;18.60;;;;;;;;;;5062604;28;20425;-81
2022/06/04 03:45:45;;;;;;;21.53;17.67;;;;;;;;;;5068627;28;20450;-83
2022/06/04 03:48:12;;;;;;;19.70;18.07;;;;;;;;;;5064110;28;20508;-82
2022/06/04 03:50:39;;;;;;;18.80;17.00;;;;;;;;;;5060681;28;21057;-82
2022/06/04 03:53:07;;;;;;;18.63;17.13;;;;;;;;;;5061363;28;20445;-81
2022/06/04 03:55:34;;;;;;;17.43;16.23;;;;;;;;;;5061002;28;20449;-82
2022/06/04 03:58:01;;;;;;;17.70;16.20;;;;;;;;;;5061529;28;20445;-82
2022/06/04 04:00:29;;;;;;;18.87;17.30;;;;;;;;;;5060146;28;20512;-82
2022/06/04 04:02:59;;;;;;;18.93;17.27;;;;;;;;;;5063063;28;20449;-81
2022/06/04 04:05:28;;;;;;;19.13;17.37;;;;;;;;;;5062368;28;20437;-81
2022/06/04 04:07:56;;;;;;;19.87;18.27;;;;;;;;;;5055403;28;20450;-82
2022/06/04 04:10:23;;;;;;;19.17;17.57;;;;;;;;;;5065040;28;20450;-82
2022/06/04 04:12:50;;;;;;;17.77;16.07;;;;;;;;;;5066286;28;20477;-80
2022/06/04 04:15:18;;;;;;;19.70;17.97;;;;;;;;;;5065470;28;20445;-81
2022/06/04 04:17:46;;;;;;;19.30;17.67;;;;;;;;;;5047040;28;20454;-82
2022/06/04 04:20:16;;;;;;;18.77;17.27;;;;;;;;;;5038730;28;20457;-80
2022/06/04 04:22:43;;;;;;;19.87;18.13;;;;;;;;;;5037142;28;20426;-81
2022/06/04 04:25:11;;;;;;;18.27;16.77;;;;;;;;;;5037178;28;20438;-82
2022/06/04 04:27:38;;;;;;;18.47;16.97;;;;;;;;;;5038006;28;20437;-82
2022/06/04 04:30:06;;;;;;;18.13;16.60;;;;;;;;;;5038343;28;20459;-81
2022/06/04 04:32:33;;;;;;;17.57;16.17;;;;;;;;;;5038523;28;20988;-82
2022/06/04 04:35:00;;;;;;;16.80;15.20;;;;;;;;;;5040020;28;20442;-83
2022/06/04 04:37:29;;;;;;;16.87;15.57;;;;;;;;;;5040391;28;20461;-82
2022/06/04 04:39:56;;;;;;;15.80;14.50;;;;;;;;;;5039579;28;20451;-81
2022/06/04 04:42:24;;;;;;;18.37;16.50;;;;;;;;;;5040074;28;20450;-82
2022/06/04 04:44:51;;;;;;;16.93;15.23;;;;;;;;;;5039086;28;20484;-82
2022/06/04 04:47:19;;;;;;;17.67;16.27;;;;;;;;;;5038975;28;20492;-82
2022/06/04 04:49:46;;;;;;;17.17;15.77;;;;;;;;;;5038663;28;20481;-82
2022/06/04 04:52:13;;;;;;;17.37;15.97;;;;;;;;;;5038441;28;20552;-82
2022/06/04 04:54:43;;;;;;;15.63;14.30;;;;;;;;;;5020648;28;20878;-82
2022/06/04 04:57:10;;;;;;;16.20;14.90;;;;;;;;;;5039249;28;20451;-82
2022/06/04 04:59:37;;;;;;;15.40;14.10;;;;;;;;;;5038914;28;21017;-82
2022/06/04 05:02:04;;;;;;;16.00;14.40;;;;;;;;;;5038806;28;20501;-82
2022/06/04 05:04:31;;;;;;;13.13;12.03;;;;;;;;;;5038261;28;20455;-81
2022/06/04 05:06:58;;;;;;;13.60;12.47;;;;;;;;;;5039260;28;20435;-81
2022/06/04 05:09:25;;;;;;;14.60;13.60;;;;;;;;;;5067359;28;20859;-82
2022/06/04 05:11:54;;;;;;;13.47;12.47;;;;;;;;;;5063806;28;20481;-81
2022/06/04 05:14:21;;;;;;;14.10;13.00;;;;;;;;;;5066106;28;20506;-82
2022/06/04 05:16:48;;;;;;;14.57;13.33;;;;;;;;;;5069011;28;20593;-81
2022/06/04 05:19:15;;;;;;;13.97;12.87;;;;;;;;;;5065449;28;20548;-81
2022/06/04 05:21:44;;;;;;;13.83;12.70;;;;;;;;;;5058714;28;20469;-82
2022/06/04 05:24:16;;;;;;;13.20;12.10;;;;;;;;;;5059020;28;20446;-79
2022/06/04 05:26:43;;;;;;;13.10;11.90;;;;;;;;;;5057567;28;20434;-81
2022/06/04 05:29:11;;;;;;;13.67;12.57;;;;;;;;;;5060291;28;20577;-81
2022/06/04 05:31:39;;;;;;;14.10;12.80;;;;;;;;;;5066963;28;20478;-81
2022/06/04 05:34:06;;;;;;;13.97;12.87;;;;;;;;;;5066950;28;20430;-81
2022/06/04 05:36:33;;;;;;;13.70;12.60;;;;;;;;;;5067822;28;20430;-81
2022/06/04 05:39:00;;;;;;;14.93;12.93;;;;;;;;;;5066637;28;20527;-82
2022/06/04 05:41:27;;;;;;;14.67;13.37;;;;;;;;;;5067996;28;20464;-80
2022/06/04 05:43:54;;;;;;;14.13;12.90;;;;;;;;;;5067459;28;20444;-80
2022/06/04 05:46:23;;;;;;;14.40;13.23;;;;;;;;;;5068797;28;20429;-81
2022/06/04 05:48:50;;;;;;;13.00;11.97;;;;;;;;;;5067910;28;20465;-82
2022/06/04 05:51:18;;;;;;;13.67;12.53;;;;;;;;;;5067821;28;20442;-83
2022/06/04 05:53:46;;;;;;;13.13;11.93;;;;;;;;;;5067392;28;20613;-80
2022/06/04 05:56:13;;;;;;;12.10;11.10;;;;;;;;;;5067580;28;20449;-80
2022/06/04 05:58:40;;;;;;;13.47;12.27;;;;;;;;;;5068780;28;20876;-82
2022/06/04 06:01:08;;;;;;;13.23;12.23;;;;;;;;;;5068823;28;20452;-81
2022/06/04 06:03:36;;;;;;;13.77;12.70;;;;;;;;;;5069297;28;20446;-81
2022/06/04 06:06:03;;;;;;;11.87;10.87;;;;;;;;;;5068078;28;20450;-82
2022/06/04 06:08:30;;;;;;;13.43;12.33;;;;;;;;;;5068612;28;20438;-81
2022/06/04 06:10:58;;;;;;;13.57;12.40;;;;;;;;;;5067858;28;20529;-81
2022/06/04 06:13:25;;;;;;;12.73;11.63;;;;;;;;;;5068248;28;20480;-81
2022/06/04 06:15:52;;;;;;;10.77;9.83;;;;;;;;;;5067058;28;20441;-81
2022/06/04 06:18:19;;;;;;;11.17;10.07;;;;;;;;;;5067252;28;20453;-81
2022/06/04 06:20:48;;;;;;;10.17;9.40;;;;;;;;;;5065015;28;20438;-80
2022/06/04 06:23:15;;;;;;;10.20;9.30;;;;;;;;;;5062251;28;20442;-82
2022/06/04 06:25:42;;;;;;;10.80;9.77;;;;;;;;;;5061593;28;20434;-82
2022/06/04 06:28:09;;;;;;;11.00;10.07;;;;;;;;;;5058062;28;20454;-81
2022/06/04 06:30:36;;;;;;;10.50;9.50;;;;;;;;;;5052438;28;20480;-81
2022/06/04 06:33:04;;;;;;;10.67;9.87;;;;;;;;;;5058499;28;20794;-83
2022/06/04 06:35:31;;;;;;;12.70;11.50;;;;;;;;;;5063118;28;20441;-81
2022/06/04 06:37:59;;;;;;;10.90;9.93;;;;;;;;;;5059514;28;20799;-81
2022/06/04 06:40:26;;;;;;;11.77;10.67;;;;;;;;;;5062921;28;20470;-82
2022/06/04 06:42:53;;;;;;;12.37;11.37;;;;;;;;;;5065280;28;20430;-83
2022/06/04 06:45:21;;;;;;;12.80;11.60;;;;;;;;;;5064210;28;20445;-81
2022/06/04 06:47:48;;;;;;;12.50;11.27;;;;;;;;;;5064622;28;20448;-82
2022/06/04 06:50:16;;;;;;;12.87;11.83;;;;;;;;;;5063604;28;20497;-81
2022/06/04 06:52:43;;;;;;;13.60;12.53;;;;;;;;;;5058036;28;20671;-81
2022/06/04 06:55:11;;;;;;;13.37;12.30;;;;;;;;;;5059295;28;20472;-81
2022/06/04 06:57:39;;;;;;;12.63;11.63;;;;;;;;;;5061255;28;20441;-81
2022/06/04 07:00:07;;;;;;;13.97;12.70;;;;;;;;;;5062014;28;20580;-80
2022/06/04 07:02:34;;;;;;;12.90;11.90;;;;;;;;;;5062458;28;20508;-80
2022/06/04 07:05:01;;;;;;;13.13;12.20;;;;;;;;;;5063313;28;20991;-81
2022/06/04 07:07:29;;;;;;;14.70;13.27;;;;;;;;;;5062008;28;20449;-81
2022/06/04 07:09:56;;;;;;;16.17;13.07;;;;;;;;;;5063607;28;20498;-81
2022/06/04 07:12:24;;;;;;;15.70;14.33;;;;;;;;;;5062659;28;20478;-80
2022/06/04 07:14:51;;;;;;;13.80;12.70;;;;;;;;;;5063307;28;20425;-81
2022/06/04 07:17:18;;;;;;;14.77;13.67;;;;;;;;;;5063801;28;20452;-82
2022/06/04 07:19:45;;;;;;;15.97;14.47;;;;;;;;;;5063430;28;20876;-82
2022/06/04 07:22:12;;;;;;;15.97;14.53;;;;;;;;;;5063482;28;20460;-82
2022/06/04 07:24:39;;;;;;;15.70;14.40;;;;;;;;;;5064700;28;20429;-82
2022/06/04 07:27:08;;;;;;;14.23;13.03;;;;;;;;;;5065196;28;20442;-82
2022/06/04 07:29:36;;;;;;;15.70;14.50;;;;;;;;;;5065127;28;20462;-81
2022/06/04 07:32:04;;;;;;;16.30;14.63;;;;;;;;;;5065647;28;20481;-81
2022/06/04 07:34:31;;;;;;;15.40;14.10;;;;;;;;;;5064310;28;20449;-82
2022/06/04 07:36:58;;;;;;;15.50;14.10;;;;;;;;;;5063023;28;20486;-82
2022/06/04 07:39:25;;;;;;;14.33;13.20;;;;;;;;;;5054509;28;20478;-82
2022/06/04 07:41:53;;;;;;;14.63;13.27;;;;;;;;;;5051715;28;20449;-82
2022/06/04 07:44:21;;;;;;;15.43;14.23;;;;;;;;;;5054565;28;20700;-82
2022/06/04 07:46:50;;;;;;;15.77;14.47;;;;;;;;;;5056431;28;20517;-81
2022/06/04 07:49:19;;;;;;;15.40;14.07;;;;;;;;;;5057117;28;20462;-81
2022/06/04 07:51:46;;;;;;;16.53;15.23;;;;;;;;;;5061160;28;20500;-81
2022/06/04 07:54:14;;;;;;;16.40;15.10;;;;;;;;;;5061250;28;20468;-81
2022/06/04 07:56:41;;;;;;;15.40;13.90;;;;;;;;;;5063163;28;20441;-82
2022/06/04 07:59:09;;;;;;;15.60;14.47;;;;;;;;;;5065316;28;20492;-82
2022/06/04 08:01:37;;;;;;;16.73;15.33;;;;;;;;;;5057296;28;20464;-81
2022/06/04 08:04:05;;;;;;;15.67;14.27;;;;;;;;;;5058251;28;20450;-82
2022/06/04 08:06:33;;;;;;;17.03;15.63;;;;;;;;;;5065633;28;20454;-82
2022/06/04 08:09:00;;;;;;;17.20;15.67;;;;;;;;;;5065520;28;20469;-81
2022/06/04 08:11:35;;;;;;;17.70;16.30;;;;;;;;;;5060442;28;20454;-81
2022/06/04 08:14:05;;;;;;;17.60;16.20;;;;;;;;;;5048252;28;20481;-82
2022/06/04 08:16:33;;;;;;;18.07;16.50;;;;;;;;;;5067850;28;20708;-80
2022/06/04 08:19:00;;;;;;;17.17;15.83;;;;;;;;;;5066738;28;20461;-80
2022/06/04 08:21:28;;;;;;;17.80;16.20;;;;;;;;;;5066219;28;20595;-82
2022/06/04 08:23:55;;;;;;;17.63;16.20;;;;;;;;;;5060224;28;20440;-83
2022/06/04 08:26:22;;;;;;;18.00;16.37;;;;;;;;;;5060360;28;20441;-83
2022/06/04 08:28:50;;;;;;;18.07;16.77;;;;;;;;;;5060917;28;20549;-81
2022/06/04 08:31:18;;;;;;;16.80;15.60;;;;;;;;;;5060966;28;20469;-84
2022/06/04 08:33:45;;;;;;;17.33;15.70;;;;;;;;;;5052331;28;20492;-84
2022/06/04 08:36:13;;;;;;;16.47;15.27;;;;;;;;;;5058299;28;20690;-82
2022/06/04 08:38:41;;;;;;;16.37;15.10;;;;;;;;;;5042883;28;20470;-81
2022/06/04 08:41:09;;;;;;;15.90;14.53;;;;;;;;;;5058876;28;20441;-80
2022/06/04 08:43:41;;;;;;;15.77;14.53;;;;;;;;;;5057692;28;20733;-81
2022/06/04 08:46:12;;;;;;;16.10;14.67;;;;;;;;;;5057870;28;21007;-82
2022/06/04 08:48:40;;;;;;;15.57;13.97;;;;;;;;;;5057599;28;20500;-82
2022/06/04 08:51:12;;;;;;;13.87;12.87;;;;;;;;;;5058294;28;20429;-81
2022/06/04 08:53:40;;;;;;;14.00;12.90;;;;;;;;;;5058406;28;20855;-82
2022/06/04 08:59:03;;;;;;;16.27;14.90;;;;;;;;;;5058892;28;20521;-82
2022/06/04 09:01:32;;;;;;;16.50;15.17;;;;;;;;;;5059641;28;20441;-82
2022/06/04 09:04:03;;;;;;;15.70;14.30;;;;;;;;;;5060018;28;20433;-80
2022/06/04 09:06:35;;;;;;;15.17;13.90;;;;;;;;;;5061775;28;20450;-81
2022/06/04 09:09:04;;;;;;;14.67;13.63;;;;;;;;;;5061032;28;20464;-80
2022/06/04 09:11:37;;;;;;;14.80;13.50;;;;;;;;;;5062264;28;20429;-81
2022/06/04 09:14:22;;;;;;;13.47;12.37;;;;;;;;;;5063365;28;20545;-81
2022/06/04 09:16:52;;;;;;;13.30;12.30;;;;;;;;;;5063448;28;20425;-80
2022/06/04 09:19:20;;;;;;;14.60;13.60;;;;;;;;;;5063507;28;20453;-80
2022/06/04 09:21:48;;;;;;;15.13;13.60;;;;;;;;;;5062955;28;20478;-80
2022/06/04 09:24:15;;;;;;;15.00;13.90;;;;;;;;;;5062649;28;20487;-80
2022/06/04 09:26:45;;;;;;;14.53;13.13;;;;;;;;;;5062085;28;20464;-81
2022/06/04 09:29:22;;;;;;;14.77;13.57;;;;;;;;;;5062041;28;20535;-81
2022/06/04 09:31:55;;;;;;;13.60;12.60;;;;;;;;;;5063426;28;20853;-82
2022/06/04 09:34:24;;;;;;;13.97;13.07;;;;;;;;;;5064011;28;20468;-80
2022/06/04 09:36:53;;;;;;;13.40;12.33;;;;;;;;;;5063240;28;20438;-82
2022/06/04 09:39:21;;;;;;;13.53;12.43;;;;;;;;;;5058258;28;20886;-82
2022/06/04 09:41:52;;;;;;;14.27;13.20;;;;;;;;;;5058283;28;20437;-81
2022/06/04 09:44:19;;;;;;;13.97;12.97;;;;;;;;;;5057506;28;20445;-82
2022/06/04 09:46:48;;;;;;;14.97;13.97;;;;;;;;;;5057841;28;20457;-81
2022/06/04 09:49:21;;;;;;;13.73;12.50;;;;;;;;;;5059942;28;21054;-80
2022/06/04 09:51:48;;;;;;;13.80;12.80;;;;;;;;;;5066298;28;20434;-80
2022/06/04 09:54:23;;;;;;;16.30;15.10;;;;;;;;;;5053565;28;20469;-81
2022/06/04 09:56:53;;;;;;;16.07;14.97;;;;;;;;;;5057562;28;20465;-81
2022/06/04 09:59:24;;;;;;;16.17;14.87;;;;;;;;;;5062974;28;20462;-81
2022/06/04 10:01:55;;;;;;;14.30;13.13;;;;;;;;;;5061883;28;20465;-80
2022/06/04 10:04:23;;;;;;;15.73;14.53;;;;;;;;;;5061875;28;20472;-80
2022/06/04 10:06:51;;;;;;;15.00;13.80;;;;;;;;;;5061798;28;20460;-81
2022/06/04 10:12:08;;;;;;;14.30;13.20;;;;;;;;;;5064189;28;20440;-80
2022/06/04 10:14:37;;;;;;;15.07;14.00;;;;;;;;;;5063686;28;20491;-80
2022/06/04 10:17:04;;;;;;;17.27;15.97;;;;;;;;;;5061183;28;20446;-80
2022/06/04 10:19:33;;;;;;;16.27;14.97;;;;;;;;;;5061565;28;20454;-80
2022/06/04 10:22:05;;;;;;;14.93;13.73;;;;;;;;;;5060661;28;20805;-81
2022/06/04 10:24:36;;;;;;;13.03;12.00;;;;;;;;;;5060792;28;20472;-81
2022/06/04 10:27:15;;;;;;;12.40;11.50;;;;;;;;;;5061158;28;20425;-82
2022/06/04 10:29:55;;;;;;;13.40;12.40;;;;;;;;;;5058812;28;20465;-84
2022/06/04 10:32:25;;;;;;;13.67;12.70;;;;;;;;;;5050461;28;20489;-83
2022/06/04 10:34:59;;;;;;;12.30;11.40;;;;;;;;;;5049080;28;20449;-84
2022/06/04 10:37:31;;;;;;;11.27;10.50;;;;;;;;;;5045980;28;20487;-85
2022/06/04 10:40:08;;;;;;;11.30;10.27;;;;;;;;;;5055756;28;20473;-82
2022/06/04 10:42:40;;;;;;;10.93;10.03;;;;;;;;;;5067287;28;20476;-79
2022/06/04 10:45:14;;;;;;;9.60;9.00;;;;;;;;;;5070562;28;20441;-78
2022/06/04 10:47:44;;;;;;;10.20;9.40;;;;;;;;;;5072674;28;20444;-81
2022/06/04 10:50:23;;;;;;;11.10;10.20;;;;;;;;;;5073851;28;20462;-82
2022/06/04 10:52:55;;;;;;;11.23;10.43;;;;;;;;;;5072744;28;20493;-83
2022/06/04 10:55:26;;;;;;;11.50;10.77;;;;;;;;;;5067811;28;20530;-83
2022/06/04 10:58:02;;;;;;;12.93;11.93;;;;;;;;;;5078165;28;20490;-81
2022/06/04 11:00:32;;;;;;;14.77;13.67;;;;;;;;;;5086031;28;20479;-81
2022/06/04 11:03:04;;;;;;;16.90;15.57;;;;;;;;;;5087277;28;20429;-81
2022/06/04 11:05:33;;;;;;;16.10;14.90;;;;;;;;;;5087284;28;20432;-81
2022/06/04 11:08:03;;;;;;;16.37;15.17;;;;;;;;;;5075455;28;20433;-80
2022/06/04 11:10:33;;;;;;;16.33;15.13;;;;;;;;;;5057513;28;20461;-81
2022/06/04 11:13:05;;;;;;;16.03;14.80;;;;;;;;;;5055972;28;20469;-80
2022/06/04 11:15:35;;;;;;;15.20;13.90;;;;;;;;;;5056027;28;20449;-81
2022/06/04 11:18:05;;;;;;;16.60;15.40;;;;;;;;;;5056584;28;20457;-80
2022/06/04 11:20:34;;;;;;;16.17;14.87;;;;;;;;;;5059828;28;20496;-82
2022/06/04 11:23:11;;;;;;;17.47;16.27;;;;;;;;;;5067266;28;20629;-81
2022/06/04 11:25:42;;;;;;;17.43;15.93;;;;;;;;;;5067684;28;20456;-82
2022/06/04 11:28:12;;;;;;;21.63;19.80;;;;;;;;;;5065832;28;20456;-81
2022/06/04 11:30:45;;;;;;;20.43;18.77;;;;;;;;;;5064597;28;20508;-81
2022/06/04 11:33:18;;;;;;;21.10;19.40;;;;;;;;;;5054063;28;20531;-82
2022/06/04 11:35:48;;;;;;;21.20;19.63;;;;;;;;;;5054910;28;20464;-81
2022/06/04 11:38:33;;;;;;;21.93;20.13;;;;;;;;;;5055346;28;20464;-81
2022/06/04 11:41:07;;;;;;;21.53;19.90;;;;;;;;;;5055234;28;20504;-81
2022/06/04 11:43:43;;;;;;;22.27;20.37;;;;;;;;;;5059237;28;20485;-82
2022/06/04 11:46:20;;;;;;;23.53;21.73;;;;;;;;;;5059402;28;20441;-84
2022/06/04 11:48:55;;;;;;;20.67;19.07;;;;;;;;;;5061124;28;20473;-84
2022/06/04 11:51:29;;;;;;;21.90;20.30;;;;;;;;;;5061764;28;20463;-83
2022/06/04 11:53:58;;;;;;;19.07;17.67;;;;;;;;;;5061122;28;20519;-82
2022/06/04 11:56:32;;;;;;;22.93;21.10;;;;;;;;;;5061663;28;20426;-83
2022/06/04 11:59:09;;;;;;;23.77;21.87;;;;;;;;;;5061070;28;20457;-82
2022/06/04 12:01:38;;;;;;;22.07;20.27;;;;;;;;;;5064858;28;20410;-84
2022/06/04 12:04:08;;;;;;;20.40;18.70;;;;;;;;;;5078184;28;20434;-84
2022/06/04 12:06:37;;;;;;;19.53;17.93;;;;;;;;;;5066475;28;20447;-83
2022/06/04 12:09:10;;;;;;;20.37;18.70;;;;;;;;;;5063332;28;20519;-83
2022/06/04 12:11:40;;;;;;;18.73;17.43;;;;;;;;;;5065056;28;20481;-84
2022/06/04 12:14:13;;;;;;;19.00;17.67;;;;;;;;;;5061926;28;20461;-83
2022/06/04 12:16:44;;;;;;;21.90;20.30;;;;;;;;;;5058619;28;20418;-83
2022/06/04 12:25:01;;;;;;;18.60;17.00;;;;;;;;;;5058691;28;20429;-82
2022/06/04 12:27:30;;;;;;;19.57;18.07;;;;;;;;;;5064402;28;20528;-81
2022/06/04 12:29:59;;;;;;;20.47;18.97;;;;;;;;;;5059609;28;20559;-83
2022/06/04 12:32:30;;;;;;;21.87;19.97;;;;;;;;;;5059527;28;20955;-81
2022/06/04 12:35:18;;;;;;;18.80;17.40;;;;;;;;;;5059110;28;20539;-80
2022/06/04 12:37:47;;;;;;;18.17;16.87;;;;;;;;;;5054280;28;20449;-82
2022/06/04 12:40:16;;;;;;;19.10;17.53;;;;;;;;;;5060206;28;20548;-82
2022/06/04 12:42:45;;;;;;;20.20;18.80;;;;;;;;;;5058868;28;20449;-80
2022/06/04 12:45:27;;;;;;;18.93;17.67;;;;;;;;;;5059769;28;20449;-80
2022/06/04 12:47:57;;;;;;;17.83;16.60;;;;;;;;;;5059643;28;20928;-81
2022/06/04 12:50:26;;;;;;;19.50;18.10;;;;;;;;;;5059624;28;20503;-81
2022/06/04 12:52:59;;;;;;;19.20;17.70;;;;;;;;;;5056927;28;20520;-83
2022/06/04 12:55:29;;;;;;;18.20;16.90;;;;;;;;;;5063867;28;20473;-82
2022/06/04 12:57:58;;;;;;;17.57;16.37;;;;;;;;;;5057946;28;20422;-82
2022/06/04 13:00:27;;;;;;;15.20;14.00;;;;;;;;;;5056858;28;20473;-83
2022/06/04 13:03:00;;;;;;;15.50;14.40;;;;;;;;;;5056683;28;20453;-85
2022/06/04 13:05:29;;;;;;;16.20;15.00;;;;;;;;;;5056509;28;20784;-83
2022/06/04 13:07:59;;;;;;;14.53;13.43;;;;;;;;;;5056406;28;20438;-83
2022/06/04 13:10:30;;;;;;;15.63;14.43;;;;;;;;;;5056481;28;20469;-83
2022/06/04 13:13:00;;;;;;;15.10;14.10;;;;;;;;;;5056656;28;20425;-83
2022/06/04 13:15:33;;;;;;;14.83;13.63;;;;;;;;;;5056011;28;20480;-82
2022/06/04 13:18:02;;;;;;;12.47;11.70;;;;;;;;;;5056307;28;20937;-83
2022/06/04 13:20:41;;;;;;;12.70;11.80;;;;;;;;;;5056029;28;20476;-83
2022/06/04 13:23:17;;;;;;;12.70;11.93;;;;;;;;;;5064676;28;20515;-84
2022/06/04 13:25:48;;;;;;;15.10;13.80;;;;;;;;;;5062637;28;20928;-84
2022/06/04 13:28:30;;;;;;;10.67;9.87;;;;;;;;;;5067974;28;20445;-81
2022/06/04 13:31:00;;;;;;;11.03;10.23;;;;;;;;;;5064282;28;20492;-83
2022/06/04 13:33:28;;;;;;;12.60;11.80;;;;;;;;;;5067270;28;20915;-83
2022/06/04 13:35:56;;;;;;;10.73;10.03;;;;;;;;;;5066800;28;20449;-82
2022/06/04 13:38:27;;;;;;;10.20;9.50;;;;;;;;;;5065287;28;20437;-83
2022/06/04 13:41:01;;;;;;;9.73;9.03;;;;;;;;;;5068335;28;20453;-86
2022/06/04 13:43:28;;;;;;;9.53;8.87;;;;;;;;;;5062669;28;20960;-84
2022/06/04 13:46:04;;;;;;;9.10;8.50;;;;;;;;;;5067549;28;20457;-82
2022/06/04 13:48:34;;;;;;;9.90;9.23;;;;;;;;;;5064525;28;20830;-81
2022/06/04 13:51:01;;;;;;;11.10;10.20;;;;;;;;;;5063249;28;20453;-81
2022/06/04 13:53:30;;;;;;;9.30;8.60;;;;;;;;;;5066134;28;20449;-82
2022/06/04 13:55:59;;;;;;;9.90;9.23;;;;;;;;;;5075089;28;20527;-82
2022/06/04 13:58:27;;;;;;;8.20;7.60;;;;;;;;;;5073112;28;21000;-82
2022/06/04 14:00:56;;;;;;;8.40;7.90;;;;;;;;;;5073888;28;20461;-82
2022/06/04 14:03:25;;;;;;;9.30;8.60;;;;;;;;;;5074503;28;20429;-82
2022/06/04 14:05:53;;;;;;;7.53;6.93;;;;;;;;;;5075359;28;20420;-82
2022/06/04 14:08:22;;;;;;;8.73;8.03;;;;;;;;;;5076031;28;20433;-83
2022/06/04 14:11:01;;;;;;;8.80;8.10;;;;;;;;;;5075024;28;20980;-81
2022/06/04 14:13:37;;;;;;;7.90;7.37;;;;;;;;;;5068609;28;20421;-81
2022/06/04 14:16:15;;;;;;;8.90;8.30;;;;;;;;;;5068558;28;20418;-82
2022/06/04 14:18:54;;;;;;;9.37;8.77;;;;;;;;;;5067837;28;20545;-83
2022/06/04 14:21:30;;;;;;;7.10;6.70;;;;;;;;;;5067309;28;20486;-82
2022/06/04 14:24:03;;;;;;;7.40;6.90;;;;;;;;;;5058112;28;20449;-83
2022/06/04 14:26:36;;;;;;;8.47;7.87;;;;;;;;;;5065352;28;20436;-81
2022/06/04 14:29:12;;;;;;;8.63;8.00;;;;;;;;;;5066089;28;20466;-82
2022/06/04 14:31:45;;;;;;;7.40;6.80;;;;;;;;;;5064801;28;20406;-81
2022/06/04 14:34:12;;;;;;;6.90;6.50;;;;;;;;;;5065654;28;20478;-81
2022/06/04 14:36:48;;;;;;;7.87;7.20;;;;;;;;;;5068011;28;20438;-81
2022/06/04 14:39:16;;;;;;;8.00;7.50;;;;;;;;;;5067310;28;20461;-80
2022/06/04 14:41:55;;;;;;;7.13;6.70;;;;;;;;;;5066795;28;20449;-81
2022/06/04 14:44:34;;;;;;;7.73;7.03;;;;;;;;;;5063730;28;20445;-80
2022/06/04 14:47:13;;;;;;;7.10;6.60;;;;;;;;;;5062071;28;20811;-82
2022/06/04 14:49:54;;;;;;;7.57;7.13;;;;;;;;;;5061973;28;20473;-81